Time;durP1;ratioP1;P1;durP2;ratioP2;P2;SDS_P1;SDS_P2;PMS_P1;PMS_P2;Temp;Humidity;BMP_temperature;BMP_pressure;BME280_temperature;BME280_humidity;BME280_pressure;Samples;Min_cycle;Max_cycle;Signal;HPM_P1;HPM_P2
2021/10/03 00:01:51;;;;;;;1.02;0.40;;;14.50;99.90;;;;;;5073742;28;20111;-76
2021/10/03 00:04:18;;;;;;;1.60;0.38;;;14.50;99.90;;;;;;5073125;28;20111;-77
2021/10/03 00:06:45;;;;;;;1.77;0.45;;;14.50;99.90;;;;;;5073701;28;20024;-77
2021/10/03 00:09:11;;;;;;;0.80;0.40;;;14.50;99.90;;;;;;5073655;28;20021;-76
2021/10/03 00:11:37;;;;;;;1.30;0.40;;;14.50;99.90;;;;;;5060434;28;20045;-77
2021/10/03 00:14:03;;;;;;;2.70;0.43;;;14.50;99.90;;;;;;5073448;28;20067;-77
2021/10/03 00:16:28;;;;;;;0.65;0.30;;;14.50;99.90;;;;;;5073378;28;20048;-77
2021/10/03 00:18:54;;;;;;;0.63;0.30;;;14.50;99.90;;;;;;5073070;28;20031;-77
2021/10/03 00:21:20;;;;;;;3.33;0.73;;;14.50;99.90;;;;;;5057435;28;20066;-78
2021/10/03 00:23:45;;;;;;;1.52;0.30;;;14.50;99.90;;;;;;5073668;28;20078;-78
2021/10/03 00:26:11;;;;;;;2.13;0.40;;;14.40;99.90;;;;;;5073273;28;20029;-78
2021/10/03 00:28:37;;;;;;;1.83;0.40;;;14.40;99.90;;;;;;5072957;28;20162;-78
2021/10/03 00:31:02;;;;;;;0.68;0.22;;;14.40;99.90;;;;;;5073073;28;20029;-78
2021/10/03 00:33:28;;;;;;;0.95;0.50;;;14.40;99.90;;;;;;5054175;28;20025;-77
2021/10/03 00:35:54;;;;;;;1.25;0.40;;;14.40;99.90;;;;;;5073411;28;20104;-77
2021/10/03 00:38:20;;;;;;;1.15;0.47;;;14.40;99.90;;;;;;5072898;28;20510;-77
2021/10/03 00:40:46;;;;;;;1.13;0.30;;;14.30;99.90;;;;;;5072780;28;20507;-76
2021/10/03 00:43:13;;;;;;;1.27;0.50;;;14.30;99.90;;;;;;5073107;28;20028;-77
2021/10/03 00:45:39;;;;;;;1.63;0.47;;;14.40;99.90;;;;;;5072875;28;20089;-77
2021/10/03 00:48:06;;;;;;;0.98;0.52;;;14.40;99.90;;;;;;5072545;28;20024;-77
2021/10/03 00:50:33;;;;;;;1.05;0.43;;;14.30;99.90;;;;;;5073155;28;20027;-76
2021/10/03 00:52:59;;;;;;;0.60;0.22;;;14.30;99.90;;;;;;5072441;28;20091;-77
2021/10/03 00:55:26;;;;;;;1.73;0.50;;;14.30;99.90;;;;;;5058824;28;20129;-77
2021/10/03 00:57:53;;;;;;;1.50;0.40;;;14.30;99.90;;;;;;5072573;28;20024;-77
2021/10/03 01:00:22;;;;;;;2.38;0.52;;;14.30;99.90;;;;;;5071659;28;20024;-77
2021/10/03 01:02:48;;;;;;;1.40;0.40;;;14.30;99.90;;;;;;5079356;28;20032;-77
2021/10/03 01:05:15;;;;;;;1.15;0.30;;;14.30;99.90;;;;;;5072238;28;20036;-77
2021/10/03 01:07:41;;;;;;;0.30;0.20;;;14.30;99.90;;;;;;5072475;28;20146;-77
2021/10/03 01:10:13;;;;;;;0.85;0.30;;;14.30;99.90;;;;;;5072295;28;20107;-77
2021/10/03 01:12:40;;;;;;;0.60;0.20;;;14.20;99.90;;;;;;5072296;28;20025;-76
2021/10/03 01:15:06;;;;;;;1.17;0.52;;;14.20;99.90;;;;;;5072317;28;20481;-77
2021/10/03 01:17:32;;;;;;;1.45;0.30;;;14.20;99.90;;;;;;5070110;28;20031;-76
2021/10/03 01:19:59;;;;;;;0.75;0.30;;;14.20;99.90;;;;;;5072063;28;20040;-77
2021/10/03 01:22:25;;;;;;;0.50;0.30;;;14.20;99.90;;;;;;5072003;28;20020;-77
2021/10/03 01:24:53;;;;;;;0.32;0.20;;;14.20;99.90;;;;;;5071971;28;20437;-76
2021/10/03 01:27:20;;;;;;;1.38;0.30;;;14.20;99.90;;;;;;5071894;28;20026;-77
2021/10/03 01:29:49;;;;;;;3.33;1.08;;;14.20;99.90;;;;;;5072573;28;20055;-77
2021/10/03 01:32:16;;;;;;;1.70;0.40;;;14.10;99.90;;;;;;5071758;28;20020;-77
2021/10/03 01:34:41;;;;;;;1.17;0.13;;;14.10;99.90;;;;;;5071751;28;20040;-77
2021/10/03 01:37:07;;;;;;;0.95;0.40;;;14.10;99.90;;;;;;5071787;28;20028;-77
2021/10/03 01:39:33;;;;;;;1.00;0.30;;;14.10;99.90;;;;;;5053490;28;20062;-77
2021/10/03 01:41:58;;;;;;;0.93;0.30;;;14.10;99.90;;;;;;5057076;28;20037;-77
2021/10/03 01:44:24;;;;;;;1.35;0.20;;;14.00;99.90;;;;;;5070989;28;20059;-77
2021/10/03 01:46:50;;;;;;;0.68;0.22;;;14.00;99.90;;;;;;5071363;28;20059;-77
2021/10/03 01:49:15;;;;;;;0.52;0.20;;;14.00;99.90;;;;;;5071727;28;20064;-77
2021/10/03 01:51:41;;;;;;;2.70;0.30;;;14.00;99.90;;;;;;5053858;28;20028;-76
2021/10/03 01:54:07;;;;;;;1.83;0.20;;;14.00;99.90;;;;;;5071592;28;20035;-77
2021/10/03 01:56:34;;;;;;;1.67;0.20;;;14.00;99.90;;;;;;5072074;28;20029;-77
2021/10/03 01:59:03;;;;;;;2.05;0.30;;;14.00;99.90;;;;;;5071383;28;20024;-77
2021/10/03 02:01:43;;;;;;;2.05;0.20;;;14.00;99.90;;;;;;5070911;28;20052;-77
2021/10/03 02:04:21;;;;;;;1.45;0.50;;;14.00;99.90;;;;;;5071567;28;20118;-77
2021/10/03 02:06:49;;;;;;;0.95;0.20;;;14.00;99.90;;;;;;5053590;28;20508;-76
2021/10/03 02:09:18;;;;;;;0.85;0.40;;;14.00;99.90;;;;;;5071471;28;20505;-77
2021/10/03 02:11:47;;;;;;;0.35;0.20;;;14.00;99.90;;;;;;5071171;28;20024;-77
2021/10/03 02:14:15;;;;;;;0.95;0.45;;;13.90;99.90;;;;;;5070943;28;20033;-77
2021/10/03 02:16:41;;;;;;;2.00;1.30;;;13.90;99.90;;;;;;5070844;28;20052;-77
2021/10/03 02:19:07;;;;;;;1.50;0.47;;;13.90;99.90;;;;;;5071122;28;20433;-77
2021/10/03 02:21:33;;;;;;;1.33;0.55;;;13.90;99.90;;;;;;5071490;28;20025;-77
2021/10/03 02:23:59;;;;;;;1.38;0.30;;;13.90;99.90;;;;;;5071352;28;20082;-77
2021/10/03 02:26:25;;;;;;;1.42;0.40;;;13.90;99.90;;;;;;5071540;28;20415;-77
2021/10/03 02:28:51;;;;;;;1.40;0.63;;;13.80;99.90;;;;;;5071126;28;20025;-76
2021/10/03 02:31:17;;;;;;;1.17;0.28;;;13.80;99.90;;;;;;5070808;28;20055;-77
2021/10/03 02:33:46;;;;;;;0.32;0.20;;;13.80;99.90;;;;;;5071117;28;20447;-77
2021/10/03 02:36:13;;;;;;;1.70;0.30;;;13.80;99.90;;;;;;5071158;28;20032;-76
2021/10/03 02:38:39;;;;;;;0.50;0.15;;;13.70;99.90;;;;;;5071388;28;20052;-77
2021/10/03 02:41:07;;;;;;;1.08;0.40;;;13.70;99.90;;;;;;5070971;28;20040;-76
2021/10/03 02:43:35;;;;;;;0.65;0.28;;;13.70;99.90;;;;;;5070679;28;20029;-77
2021/10/03 02:46:02;;;;;;;0.52;0.20;;;13.70;99.90;;;;;;5070628;28;20021;-76
2021/10/03 02:48:32;;;;;;;1.60;0.20;;;13.70;99.90;;;;;;5070944;28;20048;-76
2021/10/03 02:50:58;;;;;;;0.47;0.20;;;13.70;99.90;;;;;;5071021;28;20520;-77
2021/10/03 02:53:25;;;;;;;1.05;0.30;;;13.70;99.90;;;;;;5071322;28;20119;-77
2021/10/03 02:55:52;;;;;;;0.90;0.40;;;13.70;99.90;;;;;;5056251;28;20036;-77
2021/10/03 02:58:18;;;;;;;1.13;0.30;;;13.80;99.90;;;;;;5070421;28;20042;-77
2021/10/03 03:00:46;;;;;;;0.73;0.20;;;13.80;99.90;;;;;;5071007;28;20036;-77
2021/10/03 03:03:12;;;;;;;0.50;0.28;;;13.80;99.90;;;;;;5070900;28;20044;-77
2021/10/03 03:05:38;;;;;;;2.60;0.30;;;13.70;99.90;;;;;;5071313;28;20051;-77
2021/10/03 03:08:04;;;;;;;1.10;0.40;;;13.80;99.90;;;;;;5070738;28;20485;-77
2021/10/03 03:10:31;;;;;;;0.63;0.28;;;13.70;99.90;;;;;;5057279;28;20042;-77
2021/10/03 03:12:56;;;;;;;1.30;0.25;;;13.70;99.90;;;;;;5070342;28;20024;-77
2021/10/03 03:15:22;;;;;;;1.13;0.28;;;13.70;99.90;;;;;;5071005;28;20031;-77
2021/10/03 03:17:48;;;;;;;1.02;0.45;;;13.70;99.90;;;;;;5071229;28;20424;-77
2021/10/03 03:20:13;;;;;;;0.65;0.28;;;13.70;99.90;;;;;;5070723;28;20055;-77
2021/10/03 03:22:40;;;;;;;0.93;0.20;;;13.70;99.90;;;;;;5070525;28;20040;-77
2021/10/03 03:25:08;;;;;;;1.73;0.25;;;13.70;99.90;;;;;;5073527;28;20078;-77
2021/10/03 03:27:34;;;;;;;0.20;0.10;;;13.70;99.90;;;;;;5074249;28;20100;-77
2021/10/03 03:30:00;;;;;;;0.35;0.10;;;13.70;99.90;;;;;;5074531;28;20533;-77
2021/10/03 03:32:25;;;;;;;0.63;0.20;;;13.70;99.90;;;;;;5074720;28;20019;-77
2021/10/03 03:34:51;;;;;;;0.20;0.20;;;13.70;99.90;;;;;;5074085;28;20032;-77
2021/10/03 03:37:17;;;;;;;0.95;0.25;;;13.70;99.90;;;;;;5060534;28;20447;-78
2021/10/03 03:39:42;;;;;;;1.02;0.30;;;13.70;99.90;;;;;;5073912;28;20052;-77
2021/10/03 03:42:08;;;;;;;0.43;0.20;;;13.70;99.90;;;;;;5073580;28;20064;-77
2021/10/03 03:44:34;;;;;;;0.70;0.30;;;13.70;99.90;;;;;;5074645;28;20028;-77
2021/10/03 03:47:00;;;;;;;1.13;0.30;;;13.70;99.90;;;;;;5074130;28;20440;-77
2021/10/03 03:49:27;;;;;;;1.17;0.40;;;13.60;99.90;;;;;;5073790;28;20024;-77
2021/10/03 03:51:53;;;;;;;1.70;0.40;;;13.70;99.90;;;;;;5074096;28;20558;-77
2021/10/03 03:54:18;;;;;;;0.88;0.30;;;13.70;99.90;;;;;;5073749;28;20040;-77
2021/10/03 03:56:44;;;;;;;0.68;0.30;;;13.70;99.90;;;;;;5060318;28;20108;-77
2021/10/03 03:59:09;;;;;;;0.55;0.20;;;13.70;99.90;;;;;;5073777;28;20033;-78
2021/10/03 04:01:35;;;;;;;1.23;0.32;;;13.70;99.90;;;;;;5073097;28;20048;-77
2021/10/03 04:04:01;;;;;;;0.80;0.30;;;13.70;99.90;;;;;;5056701;28;20516;-77
2021/10/03 04:06:26;;;;;;;0.70;0.20;;;13.70;99.90;;;;;;5073267;28;20512;-78
2021/10/03 04:08:52;;;;;;;0.70;0.30;;;13.70;99.90;;;;;;5073262;28;20500;-78
2021/10/03 04:11:19;;;;;;;1.38;0.60;;;13.80;99.90;;;;;;5072952;28;20025;-78
2021/10/03 04:13:44;;;;;;;0.32;0.30;;;13.80;99.90;;;;;;5058444;28;20028;-79
2021/10/03 04:16:10;;;;;;;1.40;0.40;;;13.80;99.90;;;;;;5072981;28;20400;-78
2021/10/03 04:18:36;;;;;;;0.65;0.30;;;13.80;99.90;;;;;;5072980;28;20511;-78
2021/10/03 04:21:02;;;;;;;0.77;0.20;;;13.80;99.90;;;;;;5057662;28;20028;-78
2021/10/03 04:23:29;;;;;;;0.45;0.20;;;13.80;99.90;;;;;;5072822;28;20033;-78
2021/10/03 04:25:54;;;;;;;0.38;0.22;;;13.80;99.90;;;;;;5072627;28;20085;-79
2021/10/03 04:28:20;;;;;;;0.80;0.38;;;13.80;99.90;;;;;;5072498;28;20108;-78
2021/10/03 04:30:46;;;;;;;1.65;0.47;;;13.80;99.90;;;;;;5072937;28;20031;-78
2021/10/03 04:33:11;;;;;;;1.23;0.30;;;13.70;99.90;;;;;;5072642;28;20039;-78
2021/10/03 04:35:37;;;;;;;1.48;0.55;;;13.70;99.90;;;;;;5058134;28;20055;-78
2021/10/03 04:38:04;;;;;;;1.58;0.40;;;13.70;99.90;;;;;;5072315;28;20094;-77
2021/10/03 04:40:29;;;;;;;1.75;0.40;;;13.70;99.90;;;;;;5071430;28;20020;-76
2021/10/03 04:42:55;;;;;;;1.00;0.40;;;13.70;99.90;;;;;;5072194;28;20032;-78
2021/10/03 04:45:20;;;;;;;1.80;0.32;;;13.70;99.90;;;;;;5072598;28;20111;-77
2021/10/03 04:47:46;;;;;;;2.00;0.30;;;13.70;99.90;;;;;;5073015;28;20389;-78
2021/10/03 04:50:12;;;;;;;1.15;0.30;;;13.70;99.90;;;;;;5058848;28;20058;-79
2021/10/03 04:52:41;;;;;;;1.95;0.20;;;13.60;99.90;;;;;;5072438;28;20029;-79
2021/10/03 04:55:09;;;;;;;0.57;0.28;;;13.60;99.90;;;;;;5071742;28;20031;-78
2021/10/03 04:57:35;;;;;;;1.63;0.40;;;13.60;99.90;;;;;;5071820;28;20044;-78
2021/10/03 05:00:03;;;;;;;0.82;0.35;;;13.60;99.90;;;;;;5072408;28;20025;-78
2021/10/03 05:02:28;;;;;;;0.50;0.28;;;13.60;99.90;;;;;;5058669;28;20417;-77
2021/10/03 05:04:54;;;;;;;0.68;0.38;;;13.60;99.90;;;;;;5058137;28;20081;-78
2021/10/03 05:07:19;;;;;;;0.88;0.40;;;13.60;99.90;;;;;;5071976;28;20024;-77
2021/10/03 05:09:45;;;;;;;1.38;0.68;;;13.60;99.90;;;;;;5071522;28;20025;-78
2021/10/03 05:12:11;;;;;;;1.17;0.50;;;13.60;99.90;;;;;;5072411;28;20029;-77
2021/10/03 05:14:36;;;;;;;1.45;0.40;;;13.60;99.90;;;;;;5072144;28;20063;-78
2021/10/03 05:17:02;;;;;;;0.90;0.50;;;13.60;99.90;;;;;;5058224;28;20035;-78
2021/10/03 05:19:27;;;;;;;1.27;0.47;;;13.60;99.90;;;;;;5071984;28;20400;-78
2021/10/03 05:21:53;;;;;;;1.33;0.60;;;13.60;99.90;;;;;;5071847;28;20108;-78
2021/10/03 05:24:19;;;;;;;2.67;0.57;;;13.60;99.90;;;;;;5071078;28;20515;-77
2021/10/03 05:26:44;;;;;;;0.68;0.43;;;13.60;99.90;;;;;;5058665;28;20034;-77
2021/10/03 05:29:10;;;;;;;1.10;0.38;;;13.60;99.90;;;;;;5071309;28;20028;-77
2021/10/03 05:31:35;;;;;;;1.38;0.60;;;13.60;99.90;;;;;;5057765;28;20047;-78
2021/10/03 05:34:01;;;;;;;1.02;0.40;;;13.60;99.90;;;;;;5071511;28;20439;-77
2021/10/03 05:36:27;;;;;;;1.05;0.40;;;13.60;99.90;;;;;;5071628;28;20016;-77
2021/10/03 05:38:56;;;;;;;1.70;0.40;;;13.60;99.90;;;;;;5071028;28;20041;-77
2021/10/03 05:41:22;;;;;;;1.15;0.40;;;13.60;99.90;;;;;;5058148;28;20391;-77
2021/10/03 05:43:48;;;;;;;1.35;0.30;;;13.50;99.90;;;;;;5071339;28;20051;-77
2021/10/03 05:46:14;;;;;;;0.55;0.28;;;13.60;99.90;;;;;;5071214;28;20397;-77
2021/10/03 05:48:39;;;;;;;0.73;0.40;;;13.60;99.90;;;;;;5070943;28;20078;-77
2021/10/03 05:51:05;;;;;;;1.65;0.45;;;13.50;99.90;;;;;;5071588;28;20024;-77
2021/10/03 05:53:31;;;;;;;2.80;0.30;;;13.50;99.90;;;;;;5071042;28;20028;-77
2021/10/03 05:55:56;;;;;;;2.25;0.40;;;13.50;99.90;;;;;;5071251;28;20047;-77
2021/10/03 05:58:22;;;;;;;2.85;0.60;;;13.40;99.90;;;;;;5070910;28;20033;-77
2021/10/03 06:00:47;;;;;;;1.02;0.30;;;13.40;99.90;;;;;;5071107;28;20497;-77
2021/10/03 06:03:13;;;;;;;0.88;0.30;;;13.40;99.90;;;;;;5071253;28;20036;-77
2021/10/03 06:05:39;;;;;;;2.88;0.35;;;13.30;99.90;;;;;;5071721;28;20400;-76
2021/10/03 06:08:05;;;;;;;1.48;0.20;;;13.30;99.90;;;;;;5070622;28;20020;-77
2021/10/03 06:10:31;;;;;;;1.67;0.30;;;13.20;99.90;;;;;;5057452;28;20020;-75
2021/10/03 06:12:56;;;;;;;1.17;0.30;;;13.20;99.90;;;;;;5070849;28;20548;-75
2021/10/03 06:15:22;;;;;;;1.08;0.30;;;13.10;99.90;;;;;;5053047;28;20485;-75
2021/10/03 06:17:48;;;;;;;4.70;0.40;;;13.10;99.90;;;;;;5071415;28;20036;-75
2021/10/03 06:20:14;;;;;;;0.28;0.15;;;13.10;99.90;;;;;;5070877;28;20397;-75
2021/10/03 06:22:44;;;;;;;0.68;0.35;;;13.10;99.90;;;;;;5070862;28;20048;-75
2021/10/03 06:25:09;;;;;;;0.57;0.20;;;13.00;99.90;;;;;;5070868;28;20543;-75
2021/10/03 06:27:35;;;;;;;1.20;0.30;;;13.00;99.90;;;;;;5071283;28;20032;-74
2021/10/03 06:30:01;;;;;;;1.20;0.30;;;13.00;99.90;;;;;;5071100;28;20385;-76
2021/10/03 06:32:26;;;;;;;0.95;0.30;;;13.00;99.90;;;;;;5071053;28;20510;-77
2021/10/03 06:34:52;;;;;;;1.95;0.70;;;12.90;99.90;;;;;;5070712;28;20067;-76
2021/10/03 06:37:18;;;;;;;0.80;0.30;;;13.00;99.90;;;;;;5070554;28;20130;-76
2021/10/03 06:39:44;;;;;;;1.10;0.22;;;13.00;99.90;;;;;;5052382;28;20610;-77
2021/10/03 06:42:10;;;;;;;1.95;0.35;;;12.90;99.90;;;;;;5070358;28;20028;-77
2021/10/03 06:44:35;;;;;;;1.08;0.25;;;12.90;99.90;;;;;;5071542;28;20035;-77
2021/10/03 06:47:05;;;;;;;1.45;0.20;;;12.90;99.90;;;;;;5070422;28;20075;-76
2021/10/03 06:49:31;;;;;;;1.27;0.38;;;12.90;99.90;;;;;;5070728;28;20115;-73
2021/10/03 06:51:57;;;;;;;2.03;0.52;;;13.00;99.90;;;;;;5070234;28;20099;-77
2021/10/03 06:54:23;;;;;;;1.38;0.50;;;13.00;99.90;;;;;;5070554;28;20374;-76
2021/10/03 06:56:48;;;;;;;2.33;1.40;;;13.00;99.90;;;;;;5070959;28;20090;-76
2021/10/03 06:59:16;;;;;;;2.15;0.50;;;13.00;99.90;;;;;;5072388;28;20485;-76
2021/10/03 07:01:41;;;;;;;1.48;0.45;;;13.00;99.90;;;;;;5074174;28;20057;-76
2021/10/03 07:04:07;;;;;;;1.55;0.47;;;13.00;99.90;;;;;;5074397;28;20070;-76
2021/10/03 07:06:33;;;;;;;1.23;0.40;;;13.00;99.90;;;;;;5074436;28;20440;-77
2021/10/03 07:08:58;;;;;;;1.27;0.40;;;12.90;99.90;;;;;;5074676;28;20028;-76
2021/10/03 07:11:24;;;;;;;0.93;0.40;;;13.00;99.90;;;;;;5061281;28;20032;-75
2021/10/03 07:13:50;;;;;;;2.67;0.40;;;13.00;99.90;;;;;;5074363;28;20028;-75
2021/10/03 07:16:17;;;;;;;3.60;0.65;;;13.00;99.90;;;;;;5074638;28;20032;-77
2021/10/03 07:18:43;;;;;;;2.03;0.40;;;13.00;99.90;;;;;;5074910;28;20036;-73
2021/10/03 07:21:09;;;;;;;1.92;1.20;;;13.00;99.90;;;;;;5074517;28;20476;-76
2021/10/03 07:23:34;;;;;;;0.45;0.28;;;13.00;99.90;;;;;;5062360;28;20115;-77
2021/10/03 07:26:00;;;;;;;2.13;0.30;;;13.00;99.90;;;;;;5077495;28;20146;-77
2021/10/03 07:28:26;;;;;;;2.72;0.40;;;13.00;99.90;;;;;;5081493;28;20035;-77
2021/10/03 07:30:52;;;;;;;2.28;0.30;;;13.00;99.90;;;;;;5074828;28;20121;-77
2021/10/03 07:33:18;;;;;;;2.30;0.50;;;13.00;99.90;;;;;;5056780;28;20035;-77
2021/10/03 07:35:46;;;;;;;2.38;0.43;;;13.00;99.90;;;;;;5061176;28;20024;-76
2021/10/03 07:38:12;;;;;;;2.55;0.38;;;12.90;99.90;;;;;;5074201;28;20430;-76
2021/10/03 07:40:38;;;;;;;1.50;0.50;;;12.90;99.90;;;;;;5060858;28;20032;-76
2021/10/03 07:43:03;;;;;;;2.55;0.75;;;12.90;99.90;;;;;;5074100;28;20052;-73
2021/10/03 07:45:29;;;;;;;0.63;0.22;;;12.90;99.90;;;;;;5073684;28;20032;-74
2021/10/03 07:47:55;;;;;;;3.58;0.95;;;12.90;99.90;;;;;;5073686;28;20112;-73
2021/10/03 07:50:21;;;;;;;2.45;0.60;;;12.90;99.90;;;;;;5073361;28;20480;-73
2021/10/03 07:52:47;;;;;;;1.05;0.40;;;13.00;99.90;;;;;;5073149;28;20025;-73
2021/10/03 07:55:12;;;;;;;4.30;1.40;;;13.10;99.90;;;;;;5073098;28;20511;-73
2021/10/03 07:57:39;;;;;;;4.30;1.50;;;13.10;99.90;;;;;;5072972;28;20078;-73
2021/10/03 08:00:05;;;;;;;6.22;1.38;;;13.30;99.90;;;;;;5073414;28;20493;-73
2021/10/03 08:02:31;;;;;;;4.65;1.00;;;13.40;99.90;;;;;;5073455;28;20482;-73
2021/10/03 08:04:56;;;;;;;2.70;0.50;;;13.40;99.90;;;;;;5072641;28;20100;-74
2021/10/03 08:07:22;;;;;;;2.05;0.55;;;13.50;99.90;;;;;;5072917;28;20021;-73
2021/10/03 08:09:48;;;;;;;1.77;0.52;;;13.50;99.90;;;;;;5072928;28;20532;-73
2021/10/03 08:12:13;;;;;;;3.08;0.50;;;13.50;99.90;;;;;;5072997;28;20027;-74
2021/10/03 08:14:39;;;;;;;1.85;0.52;;;13.50;99.90;;;;;;5073644;28;20059;-74
2021/10/03 08:17:05;;;;;;;2.13;0.60;;;13.50;99.90;;;;;;5072793;28;20029;-73
2021/10/03 08:19:31;;;;;;;2.38;0.55;;;13.60;99.90;;;;;;5072435;28;20036;-73
2021/10/03 08:21:56;;;;;;;1.63;0.40;;;13.70;99.90;;;;;;5073458;28;20024;-73
2021/10/03 08:24:22;;;;;;;0.70;0.30;;;13.80;99.90;;;;;;5055084;28;20036;-73
2021/10/03 08:26:48;;;;;;;2.28;0.47;;;13.90;99.90;;;;;;5073826;28;20421;-73
2021/10/03 08:29:14;;;;;;;0.82;0.30;;;14.10;99.90;;;;;;5073335;28;20121;-74
2021/10/03 08:31:40;;;;;;;2.67;0.40;;;14.70;99.90;;;;;;5072855;28;20083;-72
2021/10/03 08:34:06;;;;;;;1.50;0.40;;;15.00;99.90;;;;;;5073043;28;20024;-72
2021/10/03 08:36:31;;;;;;;1.90;0.50;;;15.30;99.90;;;;;;5073177;28;20025;-73
2021/10/03 08:38:57;;;;;;;2.15;0.50;;;15.30;99.90;;;;;;5073279;28;20048;-73
2021/10/03 08:41:23;;;;;;;1.30;0.60;;;15.20;99.90;;;;;;5073336;28;20028;-73
2021/10/03 08:43:52;;;;;;;2.92;0.70;;;15.20;99.90;;;;;;5072677;28;20532;-71
2021/10/03 08:46:26;;;;;;;2.17;0.77;;;15.60;99.90;;;;;;5072508;28;20393;-71
2021/10/03 08:48:54;;;;;;;2.20;0.70;;;16.00;99.90;;;;;;5067674;28;20508;-73
2021/10/03 08:51:20;;;;;;;1.83;0.60;;;16.40;99.90;;;;;;5072878;28;20028;-72
2021/10/03 08:53:46;;;;;;;1.77;0.60;;;16.60;99.90;;;;;;5073255;28;20469;-73
2021/10/03 08:56:13;;;;;;;2.60;0.45;;;16.60;99.90;;;;;;5072582;28;20031;-72
2021/10/03 08:58:38;;;;;;;1.42;0.70;;;16.50;99.90;;;;;;5072228;28;20098;-73
2021/10/03 09:01:05;;;;;;;1.10;0.47;;;16.40;99.90;;;;;;5071619;28;20488;-72
2021/10/03 09:03:32;;;;;;;1.73;0.45;;;16.80;99.90;;;;;;5071982;28;20037;-74
2021/10/03 09:05:57;;;;;;;1.38;0.50;;;17.00;99.90;;;;;;5072290;28;20020;-75
2021/10/03 09:08:27;;;;;;;1.42;0.55;;;17.20;99.90;;;;;;5072278;28;20103;-74
2021/10/03 09:10:59;;;;;;;2.20;0.57;;;17.30;99.80;;;;;;5072086;28;20024;-75
2021/10/03 09:13:39;;;;;;;1.23;0.55;;;17.60;99.80;;;;;;5071424;28;20017;-74
2021/10/03 09:16:07;;;;;;;2.17;0.50;;;17.70;99.10;;;;;;5070200;28;20036;-75
2021/10/03 09:18:41;;;;;;;1.65;0.32;;;17.90;99.20;;;;;;5070975;28;20025;-74
2021/10/03 09:21:08;;;;;;;1.80;0.40;;;17.90;98.70;;;;;;5055578;28;20104;-77
2021/10/03 09:23:34;;;;;;;1.33;0.40;;;18.10;98.70;;;;;;5074006;28;20041;-75
2021/10/03 09:26:01;;;;;;;3.42;0.40;;;18.50;99.20;;;;;;5070873;28;20023;-73
2021/10/03 09:28:31;;;;;;;1.30;0.50;;;18.60;98.50;;;;;;5070553;28;20114;-76
2021/10/03 09:31:07;;;;;;;1.50;0.55;;;18.70;97.30;;;;;;5070024;28;20039;-76
2021/10/03 09:33:46;;;;;;;2.10;0.60;;;18.70;97.00;;;;;;5069378;28;20063;-76
2021/10/03 09:36:15;;;;;;;1.55;0.52;;;18.80;97.50;;;;;;5070597;28;20036;-76
2021/10/03 09:38:45;;;;;;;1.77;0.50;;;18.90;97.20;;;;;;5070465;28;20044;-74
2021/10/03 09:41:11;;;;;;;1.48;0.52;;;19.10;97.50;;;;;;5071545;28;20017;-75
2021/10/03 09:43:43;;;;;;;0.85;0.52;;;19.20;96.60;;;;;;5055551;28;20052;-76
2021/10/03 09:46:10;;;;;;;2.10;0.40;;;19.20;95.90;;;;;;5050194;28;20112;-76
2021/10/03 09:48:49;;;;;;;2.03;0.40;;;19.20;94.90;;;;;;5070046;28;20029;-76
2021/10/03 09:51:16;;;;;;;1.95;0.40;;;19.40;96.20;;;;;;5071151;28;20103;-76
2021/10/03 09:53:44;;;;;;;2.83;0.40;;;19.80;96.10;;;;;;5072584;28;20035;-76
2021/10/03 09:56:12;;;;;;;1.05;0.40;;;19.90;95.10;;;;;;5070064;28;20024;-76
2021/10/03 09:58:39;;;;;;;1.83;0.35;;;19.90;94.30;;;;;;5069857;28;20039;-77
2021/10/03 10:01:05;;;;;;;3.00;0.45;;;20.00;94.50;;;;;;5067675;28;20029;-79
2021/10/03 10:03:31;;;;;;;1.67;0.50;;;20.30;93.90;;;;;;5069783;28;20042;-77
2021/10/03 10:05:57;;;;;;;1.60;0.40;;;20.70;94.90;;;;;;5070014;28;20017;-77
2021/10/03 10:08:24;;;;;;;2.78;0.52;;;20.80;93.60;;;;;;5070169;28;20063;-78
2021/10/03 10:10:54;;;;;;;2.92;0.55;;;20.80;93.70;;;;;;5069874;28;20032;-76
2021/10/03 10:13:22;;;;;;;2.13;0.45;;;21.00;94.30;;;;;;5069609;28;20033;-75
2021/10/03 10:15:48;;;;;;;2.25;0.32;;;21.40;94.60;;;;;;5071300;28;20050;-75
2021/10/03 10:18:25;;;;;;;1.30;0.32;;;21.90;92.70;;;;;;5052835;28;20443;-77
2021/10/03 10:20:53;;;;;;;2.45;0.40;;;21.90;89.50;;;;;;5069932;28;20039;-75
2021/10/03 10:23:27;;;;;;;2.30;0.40;;;21.90;92.30;;;;;;5073519;28;20028;-76
2021/10/03 10:25:55;;;;;;;2.28;0.30;;;21.60;86.20;;;;;;5069737;28;20499;-72
2021/10/03 10:28:30;;;;;;;1.83;0.22;;;22.10;92.30;;;;;;5072177;28;20025;-73
2021/10/03 10:31:01;;;;;;;1.17;0.30;;;22.10;91.80;;;;;;5069142;28;20020;-73
2021/10/03 10:33:41;;;;;;;2.15;0.45;;;22.30;91.50;;;;;;5071029;28;20115;-73
2021/10/03 10:36:28;;;;;;;4.15;0.60;;;22.40;89.20;;;;;;5075224;28;20452;-74
2021/10/03 10:39:09;;;;;;;1.17;0.40;;;22.70;89.40;;;;;;5071677;28;20139;-74
2021/10/03 10:41:43;;;;;;;1.42;0.38;;;23.60;90.80;;;;;;5078723;28;20024;-74
2021/10/03 10:44:24;;;;;;;1.25;0.40;;;24.10;89.00;;;;;;5076737;28;20127;-73
2021/10/03 10:46:53;;;;;;;1.67;0.47;;;24.60;89.20;;;;;;5075026;28;20059;-73
2021/10/03 10:49:42;;;;;;;1.52;0.60;;;24.70;77.70;;;;;;5069883;28;20032;-73
2021/10/03 10:52:20;;;;;;;3.63;0.82;;;23.80;78.50;;;;;;5065166;28;20052;-81
2021/10/03 10:55:11;;;;;;;1.58;0.30;;;22.20;82.50;;;;;;5074690;28;20052;-76
2021/10/03 10:57:48;;;;;;;2.72;0.50;;;22.00;90.20;;;;;;5069853;28;20028;-76
2021/10/03 11:00:25;;;;;;;2.60;0.40;;;22.20;89.60;;;;;;5074618;28;20591;-76
2021/10/03 11:02:52;;;;;;;2.55;0.30;;;22.40;83.80;;;;;;5071100;28;20504;-77
2021/10/03 11:05:34;;;;;;;1.88;0.40;;;22.50;84.10;;;;;;5074681;28;20035;-75
2021/10/03 11:08:19;;;;;;;2.25;0.60;;;22.50;88.60;;;;;;5074451;28;20097;-77
2021/10/03 11:10:57;;;;;;;1.13;0.40;;;22.70;84.20;;;;;;5074109;28;20086;-77
2021/10/03 11:13:41;;;;;;;1.40;0.30;;;22.40;84.70;;;;;;5077213;28;20048;-76
2021/10/03 11:16:34;;;;;;;1.50;0.40;;;22.20;86.70;;;;;;5074157;28;20024;-75
2021/10/03 11:19:10;;;;;;;2.25;0.52;;;22.50;90.60;;;;;;5063289;28;20070;-79
2021/10/03 11:21:40;;;;;;;2.72;0.55;;;22.80;83.20;;;;;;5074154;28;20173;-75
2021/10/03 11:24:20;;;;;;;1.65;0.30;;;22.80;84.50;;;;;;5058383;28;20033;-78
2021/10/03 11:26:47;;;;;;;1.90;0.35;;;22.90;87.20;;;;;;5074269;28;20029;-74
2021/10/03 11:29:13;;;;;;;1.20;0.32;;;23.10;82.70;;;;;;5063404;28;20036;-76
2021/10/03 11:31:48;;;;;;;1.77;0.40;;;23.30;81.30;;;;;;5067610;28;20755;-70
2021/10/03 11:34:34;;;;;;;1.25;0.30;;;23.50;81.90;;;;;;5077104;28;20035;-70
2021/10/03 11:37:09;;;;;;;1.92;0.45;;;23.50;83.60;;;;;;5072639;28;20183;-72
2021/10/03 11:39:51;;;;;;;1.75;0.40;;;23.10;73.40;;;;;;5074277;28;20037;-71
2021/10/03 11:42:29;;;;;;;1.00;0.47;;;23.30;83.20;;;;;;5073322;28;20024;-75
2021/10/03 11:45:03;;;;;;;2.13;0.50;;;23.80;79.40;;;;;;5073297;28;20028;-74
2021/10/03 11:47:50;;;;;;;1.40;0.40;;;23.80;78.90;;;;;;5073561;28;20021;-76
2021/10/03 11:50:18;;;;;;;1.15;0.30;;;23.90;75.30;;;;;;5073867;28;20040;-76
2021/10/03 11:52:45;;;;;;;2.28;0.40;;;23.90;75.40;;;;;;5074182;28;20444;-76
2021/10/03 11:55:17;;;;;;;1.05;0.40;;;23.80;67.60;;;;;;5075082;28;20400;-75
2021/10/03 11:57:45;;;;;;;1.13;0.40;;;24.30;78.70;;;;;;5079514;28;20028;-74
2021/10/03 12:00:15;;;;;;;1.38;0.57;;;24.70;72.30;;;;;;5080517;28;20012;-73
2021/10/03 12:02:52;;;;;;;1.45;0.40;;;24.90;75.30;;;;;;5073953;28;20048;-74
2021/10/03 12:05:24;;;;;;;0.43;0.32;;;24.80;74.30;;;;;;5075012;28;20024;-77
2021/10/03 12:08:17;;;;;;;1.92;0.60;;;24.90;72.30;;;;;;5077104;28;20021;-77
2021/10/03 12:10:51;;;;;;;1.25;0.60;;;25.50;80.90;;;;;;5073026;28;20176;-76
2021/10/03 12:13:27;;;;;;;2.08;0.30;;;26.10;75.70;;;;;;5073353;28;20588;-75
2021/10/03 12:15:56;;;;;;;1.52;0.50;;;25.80;69.50;;;;;;5073234;28;20051;-79
2021/10/03 12:18:24;;;;;;;4.45;0.52;;;25.50;66.50;;;;;;5057408;28;20021;-76
2021/10/03 12:21:00;;;;;;;1.70;0.60;;;26.60;73.30;;;;;;5069960;28;20036;-79
2021/10/03 12:23:52;;;;;;;1.10;0.50;;;28.60;77.70;;;;;;5072744;28;20521;-78
2021/10/03 12:26:33;;;;;;;1.25;0.70;;;29.50;68.70;;;;;;5061854;28;20029;-80
2021/10/03 12:29:04;;;;;;;1.25;0.90;;;30.90;74.20;;;;;;5070341;28;20024;-83
2021/10/03 12:31:56;;;;;;;2.05;1.00;;;31.90;55.50;;;;;;5057905;28;20405;-77
2021/10/03 12:34:22;;;;;;;1.52;1.02;;;32.80;62.30;;;;;;5073532;28;20017;-80
2021/10/03 12:36:50;;;;;;;2.97;1.20;;;33.60;42.50;;;;;;5075776;28;20032;-76
2021/10/03 12:39:17;;;;;;;1.40;1.30;;;33.30;49.70;;;;;;5076499;28;20078;-76
2021/10/03 12:41:43;;;;;;;1.25;0.90;;;34.30;43.10;;;;;;5078213;28;20082;-73
2021/10/03 12:44:09;;;;;;;1.30;1.20;;;34.10;40.20;;;;;;5072797;28;20040;-81
2021/10/03 12:46:35;;;;;;;1.77;1.60;;;35.00;42.80;;;;;;5072988;28;20033;-76
2021/10/03 12:49:01;;;;;;;1.77;1.52;;;36.10;42.60;;;;;;5075517;28;20028;-73
2021/10/03 12:51:26;;;;;;;1.55;0.60;;;35.40;33.40;;;;;;5081670;28;20021;-78
2021/10/03 12:53:52;;;;;;;1.13;0.60;;;33.60;35.90;;;;;;5073028;28;20476;-75